createdAt,value
2019-03-30T00:05:18.177Z,18.40
2019-03-30T00:10:43.145Z,19.97
2019-03-30T00:16:07.460Z,20.77
2019-03-30T00:21:32.496Z,21.10
2019-03-30T00:26:57.826Z,21.50
2019-03-30T00:32:22.323Z,24.35
2019-03-30T00:37:48.382Z,26.55
2019-03-30T00:43:12.865Z,22.47
2019-03-30T00:48:38.025Z,22.43
2019-03-30T00:54:03.165Z,23.87
2019-03-30T00:59:28.297Z,22.47
2019-03-30T01:04:53.180Z,24.10
2019-03-30T01:10:18.221Z,22.57
2019-03-30T01:15:43.529Z,22.43
2019-03-30T01:21:08.538Z,23.60
2019-03-30T01:26:33.165Z,24.50
2019-03-30T01:37:32.619Z,22.73
2019-03-30T02:00:10.403Z,22.23
2019-03-30T02:05:34.742Z,24.13
2019-03-30T02:10:59.760Z,21.70
2019-03-30T02:16:24.531Z,20.37
2019-03-30T02:21:49.381Z,19.27
2019-03-30T02:27:14.383Z,19.47
2019-03-30T02:32:39.367Z,19.47
2019-03-30T02:38:03.967Z,21.07
2019-03-30T02:43:28.197Z,20.50
2019-03-30T02:48:53.141Z,22.03
2019-03-30T02:54:17.600Z,25.30
2019-03-30T02:59:42.758Z,21.47
2019-03-30T03:05:07.885Z,23.60
2019-03-30T03:10:32.781Z,21.37
2019-03-30T03:15:57.701Z,22.33
2019-03-30T03:21:22.204Z,22.37
2019-03-30T03:26:47.250Z,24.57
2019-03-30T03:32:12.564Z,23.07
2019-03-30T03:37:45.169Z,24.17
2019-03-30T03:43:04.026Z,24.77
2019-03-30T03:48:29.280Z,25.00
2019-03-30T03:53:54.265Z,26.57
2019-03-30T03:59:20.265Z,25.50
2019-03-30T04:04:48.656Z,26.07
2019-03-30T04:10:14.240Z,26.57
2019-03-30T04:15:39.872Z,22.30
2019-03-30T04:21:04.526Z,22.23
2019-03-30T04:26:29.674Z,23.87
2019-03-30T04:31:54.015Z,23.73
2019-03-30T04:37:19.043Z,27.03
2019-03-30T04:42:44.067Z,26.37
2019-03-30T04:48:08.685Z,26.93
2019-03-30T04:53:33.394Z,27.63
2019-03-30T04:58:58.500Z,24.80
2019-03-30T05:04:23.442Z,27.40
2019-03-30T05:09:48.275Z,28.27
2019-03-30T05:15:14.740Z,37.13
2019-03-30T05:20:39.949Z,36.77
2019-03-30T05:26:04.470Z,35.67
2019-03-30T05:31:29.557Z,36.47
2019-03-30T05:36:54.483Z,38.00
2019-03-30T05:42:19.490Z,39.60
2019-03-30T05:48:03.169Z,40.23
2019-03-30T05:53:28.041Z,38.87
2019-03-30T05:58:52.789Z,37.27
2019-03-30T06:04:17.610Z,38.07
2019-03-30T06:09:43.085Z,38.13
2019-03-30T06:15:07.861Z,39.83
2019-03-30T06:20:32.480Z,39.77
2019-03-30T06:25:57.382Z,40.83
2019-03-30T06:31:22.435Z,42.37
2019-03-30T06:36:47.210Z,42.70
2019-03-30T06:42:12.626Z,46.13
2019-03-30T06:47:37.082Z,44.27
2019-03-30T06:53:01.872Z,46.17
2019-03-30T06:58:26.893Z,45.47
2019-03-30T07:03:52.212Z,47.20
2019-03-30T07:09:19.057Z,48.80
2019-03-30T07:14:46.742Z,46.63
2019-03-30T07:20:15.583Z,46.23
2019-03-30T07:25:40.387Z,47.17
2019-03-30T07:31:05.502Z,44.93
2019-03-30T07:36:30.667Z,48.60
2019-03-30T07:41:55.187Z,52.50
2019-03-30T07:47:20.177Z,52.30
2019-03-30T07:52:45.062Z,52.47
2019-03-30T07:58:10.224Z,53.17
2019-03-30T08:03:35.276Z,54.00
2019-03-30T08:09:00.007Z,54.53
2019-03-30T08:14:25.087Z,56.13
2019-03-30T08:19:50.816Z,53.53
2019-03-30T08:25:16.103Z,56.10
2019-03-30T08:30:41.312Z,56.47
2019-03-30T08:36:06.158Z,58.93
2019-03-30T08:41:31.634Z,58.93
2019-03-30T08:46:57.266Z,58.97
2019-03-30T08:52:22.293Z,53.53
2019-03-30T08:57:46.790Z,57.87
2019-03-30T09:03:11.924Z,56.17
2019-03-30T09:08:37.151Z,59.57
2019-03-30T09:14:02.584Z,56.23
2019-03-30T09:19:28.102Z,54.80
2019-03-30T09:24:53.002Z,53.73
2019-03-30T09:30:18.251Z,54.00
2019-03-30T09:35:43.225Z,49.97
2019-03-30T09:41:08.808Z,53.70
2019-03-30T09:46:33.726Z,52.13
2019-03-30T09:51:58.447Z,52.62
2019-03-30T09:57:23.270Z,50.80
2019-03-30T10:02:47.751Z,52.58
2019-03-30T10:08:12.771Z,48.40
2019-03-30T10:13:37.706Z,46.88
2019-03-30T10:19:02.824Z,45.12
2019-03-30T10:24:37.985Z,44.88
2019-03-30T10:29:55.117Z,43.87
2019-03-30T10:35:19.695Z,44.23
2019-03-30T10:40:44.737Z,39.73
2019-03-30T10:46:09.889Z,38.67
2019-03-30T10:51:34.889Z,36.15
2019-03-30T10:56:59.615Z,33.28
2019-03-30T11:02:24.839Z,29.67
2019-03-30T11:07:49.699Z,36.58
2019-03-30T11:13:14.896Z,37.48
2019-03-30T11:18:39.536Z,36.63
2019-03-30T11:24:06.705Z,36.10
2019-03-30T11:29:31.264Z,35.00
2019-03-30T11:34:56.375Z,36.85
2019-03-30T11:40:21.502Z,34.13
2019-03-30T11:45:46.500Z,30.80
2019-03-30T11:51:11.795Z,32.28
2019-03-30T11:56:36.690Z,29.92
2019-03-30T12:02:01.917Z,27.05
2019-03-30T12:07:26.648Z,29.95
2019-03-30T12:12:51.940Z,27.65
2019-03-30T12:18:17.053Z,28.55
2019-03-30T12:23:42.855Z,27.35
2019-03-30T12:29:08.878Z,28.45
2019-03-30T12:34:33.875Z,26.30
2019-03-30T12:39:59.124Z,27.20
2019-03-30T12:45:24.119Z,25.00
2019-03-30T12:50:50.486Z,27.48
2019-03-30T12:56:15.742Z,24.95
2019-03-30T13:01:40.494Z,28.02
2019-03-30T13:07:06.032Z,25.50
2019-03-30T13:12:31.340Z,26.45
2019-03-30T13:17:56.183Z,27.15
2019-03-30T13:23:20.923Z,28.00
2019-03-30T13:28:45.712Z,28.62
2019-03-30T13:34:11.092Z,24.50
2019-03-30T13:39:36.671Z,24.40
2019-03-30T13:45:03.361Z,23.62
2019-03-30T13:50:31.001Z,24.45
2019-03-30T13:55:54.621Z,23.42
2019-03-30T14:01:19.668Z,22.50
2019-03-30T14:06:44.455Z,21.33
2019-03-30T14:12:29.708Z,22.15
2019-03-30T14:17:55.178Z,20.43
2019-03-30T14:23:20.111Z,18.80
2019-03-30T14:28:44.856Z,18.50
2019-03-30T14:34:10.043Z,16.50
2019-03-30T14:39:35.356Z,16.62
2019-03-30T14:45:00.377Z,15.05
2019-03-30T14:50:25.407Z,15.00
2019-03-30T14:55:50.173Z,14.38
2019-03-30T15:01:15.118Z,15.38
2019-03-30T15:06:40.552Z,17.92
2019-03-30T15:12:05.711Z,15.85
2019-03-30T15:17:30.911Z,17.02
2019-03-30T15:22:56.319Z,18.12
2019-03-30T15:28:21.481Z,10.50
2019-03-30T15:33:46.301Z,19.30
2019-03-30T15:39:10.583Z,18.57
2019-03-30T15:44:35.358Z,18.02
2019-03-30T15:50:00.837Z,17.40
2019-03-30T15:55:25.658Z,17.27
2019-03-30T16:00:50.662Z,16.97
2019-03-30T16:06:16.106Z,15.95
2019-03-30T16:11:41.252Z,17.25
2019-03-30T16:17:06.611Z,17.70
2019-03-30T16:22:31.874Z,18.90
2019-03-30T16:27:56.870Z,19.10
2019-03-30T16:33:21.722Z,19.92
2019-03-30T16:39:06.997Z,18.10
2019-03-30T16:44:31.723Z,18.65
2019-03-30T16:49:56.773Z,20.25
2019-03-30T16:55:21.731Z,19.95
2019-03-30T17:00:56.504Z,22.37
2019-03-30T17:06:13.156Z,21.37
2019-03-30T17:11:38.729Z,21.12
2019-03-30T17:17:04.134Z,21.90
2019-03-30T17:22:30.562Z,22.77
2019-03-30T17:27:58.475Z,23.75
2019-03-30T17:33:21.733Z,23.45
2019-03-30T17:38:46.641Z,23.57
2019-03-30T17:44:11.906Z,23.47
2019-03-30T17:49:37.327Z,24.80
2019-03-30T17:55:02.927Z,24.52
2019-03-30T18:00:27.860Z,24.57
2019-03-30T18:05:53.095Z,25.15
2019-03-30T18:11:18.435Z,26.75
2019-03-30T18:16:43.602Z,29.52
2019-03-30T18:22:08.468Z,28.60
2019-03-30T18:27:33.514Z,27.30
2019-03-30T18:32:58.767Z,24.90
2019-03-30T18:38:23.927Z,24.10
2019-03-30T18:43:49.943Z,20.90
2019-03-30T18:49:15.148Z,21.87
2019-03-30T18:54:40.789Z,20.80
2019-03-30T19:00:07.128Z,27.40
2019-03-30T19:05:32.252Z,34.53
2019-03-30T19:10:57.121Z,29.92
2019-03-30T19:16:22.346Z,32.10
2019-03-30T19:21:47.932Z,30.57
2019-03-30T19:27:13.563Z,36.75
2019-03-30T19:32:39.199Z,27.98
2019-03-30T19:38:04.527Z,36.93
2019-03-30T19:43:29.629Z,34.60
2019-03-30T19:48:54.390Z,34.50
2019-03-30T19:54:20.001Z,31.50
2019-03-30T19:59:45.116Z,31.52
2019-03-30T20:05:10.608Z,31.12
2019-03-30T20:10:36.097Z,32.98
2019-03-30T20:16:01.034Z,32.30
2019-03-30T20:21:25.672Z,28.95
2019-03-30T20:26:50.954Z,27.35
2019-03-30T20:32:16.014Z,28.27
2019-03-30T20:37:41.474Z,28.32
2019-03-30T20:43:06.389Z,30.27
2019-03-30T20:48:31.210Z,29.12
2019-03-30T20:53:55.794Z,31.57
2019-03-30T20:59:20.848Z,31.97
2019-03-30T21:04:45.540Z,30.23
2019-03-30T21:10:10.742Z,29.20
2019-03-30T21:15:36.520Z,28.95
2019-03-30T21:21:01.818Z,26.37
2019-03-30T21:26:28.584Z,26.20
2019-03-30T21:31:53.672Z,25.17
2019-03-30T21:37:21.802Z,26.75
2019-03-30T21:42:46.458Z,25.12
2019-03-30T21:48:11.231Z,25.35
2019-03-30T21:53:36.559Z,23.80
2019-03-30T21:59:01.078Z,25.65
2019-03-30T22:04:26.150Z,29.95
2019-03-30T22:09:51.628Z,31.77
2019-03-30T22:15:19.827Z,26.52
2019-03-30T22:20:44.479Z,27.02
2019-03-30T22:26:10.370Z,29.15
2019-03-30T22:31:35.656Z,30.00
2019-03-30T22:37:01.343Z,28.98
2019-03-30T22:42:26.520Z,29.07
2019-03-30T22:47:51.504Z,28.42
2019-03-30T22:53:16.514Z,35.17
2019-03-30T22:58:41.550Z,36.03
2019-03-30T23:04:06.454Z,35.07
2019-03-30T23:09:31.551Z,36.73
2019-03-30T23:14:56.399Z,36.85
2019-03-30T23:20:21.308Z,35.40
2019-03-30T23:25:46.190Z,32.05
2019-03-30T23:31:11.245Z,30.15
2019-03-30T23:36:36.339Z,29.75
2019-03-30T23:42:00.979Z,34.97
2019-03-30T23:47:25.731Z,37.00
2019-03-30T23:52:50.338Z,38.25
2019-03-30T23:58:14.934Z,41.08
